Time;durP1;ratioP1;P1;durP2;ratioP2;P2;SDS_P1;SDS_P2;PMS_P1;PMS_P2;Temp;Humidity;BMP_temperature;BMP_pressure;BME280_temperature;BME280_humidity;BME280_pressure;Samples;Min_cycle;Max_cycle;Signal;HPM_P1;HPM_P2
2021/12/01 00:02:52;;;;;;;0.40;0.40;;;2.50;99.90;;;;;;4994678;28;20470;-66
2021/12/01 00:05:39;;;;;;;0.40;0.40;;;2.50;99.90;;;;;;4994826;28;20463;-66
2021/12/01 00:08:26;;;;;;;0.40;0.40;;;2.40;99.90;;;;;;4995160;28;20948;-67
2021/12/01 00:11:13;;;;;;;0.33;0.33;;;2.30;99.90;;;;;;4994191;28;20947;-66
2021/12/01 00:14:00;;;;;;;0.40;0.40;;;2.30;99.90;;;;;;4995374;28;20443;-67
2021/12/01 00:16:47;;;;;;;0.40;0.40;;;2.30;99.90;;;;;;5007437;28;20459;-67
2021/12/01 00:19:35;;;;;;;0.40;0.40;;;2.30;99.90;;;;;;5016548;28;20943;-68
2021/12/01 00:22:22;;;;;;;0.40;0.40;;;2.30;99.90;;;;;;5016442;28;20499;-67
2021/12/01 00:25:11;;;;;;;0.40;0.40;;;2.20;99.90;;;;;;5015866;28;20458;-67
2021/12/01 00:27:58;;;;;;;0.40;0.40;;;2.20;99.90;;;;;;5013872;28;20470;-67
2021/12/01 00:30:45;;;;;;;0.40;0.40;;;2.20;99.90;;;;;;4996708;28;20455;-67
2021/12/01 00:33:32;;;;;;;0.40;0.40;;;2.30;99.90;;;;;;4994525;28;20501;-66
2021/12/01 00:36:20;;;;;;;0.40;0.40;;;2.30;99.90;;;;;;4994076;28;20430;-67
2021/12/01 00:39:07;;;;;;;0.40;0.40;;;2.30;99.90;;;;;;4994190;28;20434;-67
2021/12/01 00:41:56;;;;;;;0.40;0.40;;;2.30;99.90;;;;;;4993555;28;21010;-66
2021/12/01 00:44:46;;;;;;;0.40;0.40;;;2.30;99.90;;;;;;4974274;28;20460;-67
2021/12/01 00:47:42;;;;;;;0.40;0.40;;;2.30;99.90;;;;;;4974904;28;20432;-67
2021/12/01 00:50:31;;;;;;;0.40;0.40;;;2.30;99.90;;;;;;4974205;28;20424;-67
2021/12/01 00:53:19;;;;;;;0.40;0.40;;;2.30;99.90;;;;;;4975152;28;20452;-67
2021/12/01 00:56:07;;;;;;;0.40;0.40;;;2.20;99.90;;;;;;4975250;28;20427;-67
2021/12/01 00:58:54;;;;;;;0.40;0.40;;;2.30;99.90;;;;;;4974534;28;20667;-67
2021/12/01 01:01:41;;;;;;;0.40;0.40;;;2.30;99.90;;;;;;4974895;28;20847;-67
2021/12/01 01:04:27;;;;;;;0.40;0.40;;;2.30;99.90;;;;;;4975530;28;20431;-67
2021/12/01 01:07:14;;;;;;;0.40;0.40;;;2.40;99.90;;;;;;4974541;28;20430;-67
2021/12/01 01:10:16;;;;;;;0.40;0.40;;;2.50;99.90;;;;;;4974683;28;20483;-66
2021/12/01 01:16:25;;;;;;;0.40;0.40;;;2.70;99.90;;;;;;4975247;28;20471;-67
2021/12/01 01:19:15;;;;;;;0.40;0.40;;;2.60;99.90;;;;;;4975241;28;20423;-67
2021/12/01 01:22:03;;;;;;;0.40;0.40;;;2.90;99.90;;;;;;4974399;28;20431;-67
2021/12/01 01:24:50;;;;;;;0.40;0.40;;;3.00;99.90;;;;;;4974551;28;20468;-67
2021/12/01 01:27:38;;;;;;;0.40;0.40;;;3.00;99.90;;;;;;4976089;28;20464;-67
2021/12/01 01:30:25;;;;;;;0.40;0.40;;;3.10;99.90;;;;;;4974908;28;20432;-67
2021/12/01 01:33:12;;;;;;;0.40;0.40;;;3.10;99.90;;;;;;4975013;28;20441;-66
2021/12/01 01:35:59;;;;;;;0.40;0.40;;;3.10;99.90;;;;;;4972879;28;20424;-67
2021/12/01 01:38:47;;;;;;;0.40;0.40;;;2.90;99.90;;;;;;4976737;28;20484;-67
2021/12/01 01:41:34;;;;;;;0.40;0.40;;;3.20;99.90;;;;;;4978851;28;20454;-66
2021/12/01 01:44:23;;;;;;;0.40;0.40;;;3.20;99.90;;;;;;4997160;28;20429;-67
2021/12/01 01:47:11;;;;;;;0.40;0.40;;;3.20;99.90;;;;;;4998270;28;20431;-67
2021/12/01 01:50:01;;;;;;;0.40;0.40;;;3.30;99.90;;;;;;4998187;28;20498;-66
2021/12/01 01:52:48;;;;;;;0.40;0.40;;;3.30;99.90;;;;;;4997303;28;20587;-67
2021/12/01 01:55:36;;;;;;;0.40;0.40;;;3.30;99.90;;;;;;4998073;28;20415;-67
2021/12/01 01:58:24;;;;;;;0.40;0.40;;;3.40;99.90;;;;;;4997595;28;20434;-67
2021/12/01 02:01:25;;;;;;;0.40;0.40;;;3.40;99.90;;;;;;4996576;28;20442;-67
2021/12/01 02:04:13;;;;;;;0.40;0.40;;;3.40;99.90;;;;;;4997823;28;20514;-67
2021/12/01 02:07:01;;;;;;;0.33;0.33;;;3.50;99.90;;;;;;4998519;28;20879;-67
2021/12/01 02:09:49;;;;;;;0.40;0.40;;;3.50;99.90;;;;;;4997414;28;20446;-67
2021/12/01 02:12:38;;;;;;;0.40;0.40;;;3.50;99.90;;;;;;4996763;28;20446;-67
2021/12/01 02:15:25;;;;;;;0.40;0.40;;;3.50;99.90;;;;;;4997330;28;20446;-67
2021/12/01 02:18:14;;;;;;;0.40;0.40;;;3.50;99.90;;;;;;4997178;28;20429;-67
2021/12/01 02:21:07;;;;;;;0.40;0.40;;;3.50;99.90;;;;;;4997522;28;20439;-67
2021/12/01 02:23:55;;;;;;;0.40;0.40;;;3.50;99.90;;;;;;4996088;28;20462;-67
2021/12/01 02:26:44;;;;;;;0.40;0.40;;;3.50;99.90;;;;;;4996921;28;20458;-67
2021/12/01 02:29:31;;;;;;;0.40;0.40;;;3.50;99.90;;;;;;4997090;28;20518;-67
2021/12/01 02:32:18;;;;;;;0.40;0.40;;;3.50;99.90;;;;;;4997168;28;20451;-67
2021/12/01 02:35:06;;;;;;;0.40;0.40;;;3.50;99.90;;;;;;4996746;28;20450;-67
2021/12/01 02:37:54;;;;;;;0.40;0.40;;;3.40;99.90;;;;;;4997903;28;20474;-66
2021/12/01 02:40:41;;;;;;;0.40;0.40;;;3.50;99.90;;;;;;4991455;28;20518;-66
2021/12/01 02:43:29;;;;;;;0.40;0.40;;;3.50;99.90;;;;;;5004439;28;20454;-66
2021/12/01 02:46:16;;;;;;;0.40;0.40;;;3.50;99.90;;;;;;5017353;28;20821;-66
2021/12/01 02:49:03;;;;;;;0.40;0.40;;;3.50;99.90;;;;;;5017173;28;20418;-66
2021/12/01 02:51:53;;;;;;;0.40;0.40;;;;;;;;;;5015018;28;20418;-66
2021/12/01 02:54:41;;;;;;;0.40;0.40;;;3.60;99.90;;;;;;5016862;28;20441;-66
2021/12/01 02:57:28;;;;;;;0.40;0.40;;;3.70;99.90;;;;;;5016549;28;20418;-66
2021/12/01 03:00:17;;;;;;;0.40;0.40;;;3.60;99.90;;;;;;5014863;28;20430;-66
2021/12/01 03:03:05;;;;;;;0.40;0.40;;;3.60;99.90;;;;;;5016063;28;20532;-66
2021/12/01 03:05:52;;;;;;;0.40;0.40;;;3.60;99.90;;;;;;5016328;28;20477;-66
2021/12/01 03:08:41;;;;;;;0.40;0.40;;;3.60;99.90;;;;;;5015682;28;20886;-67
2021/12/01 03:11:29;;;;;;;0.40;0.40;;;3.60;99.90;;;;;;5015709;28;20429;-66
2021/12/01 03:14:18;;;;;;;0.40;0.40;;;3.60;99.90;;;;;;5014825;28;20778;-67
2021/12/01 03:17:05;;;;;;;0.40;0.40;;;3.60;99.90;;;;;;5016422;28;20794;-66
2021/12/01 03:19:52;;;;;;;0.40;0.40;;;3.60;99.90;;;;;;5016616;28;20469;-66
2021/12/01 03:22:39;;;;;;;0.40;0.40;;;3.60;99.90;;;;;;5034831;28;20457;-66
2021/12/01 03:25:27;;;;;;;0.40;0.40;;;3.50;99.90;;;;;;5034978;28;20476;-67
2021/12/01 03:28:16;;;;;;;0.40;0.40;;;3.50;99.90;;;;;;5038256;28;20422;-67
2021/12/01 03:31:02;;;;;;;0.40;0.40;;;3.60;99.90;;;;;;5037929;28;20462;-67
2021/12/01 03:33:50;;;;;;;0.40;0.40;;;3.60;99.90;;;;;;5024659;28;20545;-66
2021/12/01 03:36:37;;;;;;;0.40;0.40;;;3.70;99.90;;;;;;5015911;28;20414;-66
2021/12/01 03:39:24;;;;;;;0.40;0.40;;;3.70;99.90;;;;;;5017971;28;20480;-66
2021/12/01 03:42:11;;;;;;;0.40;0.40;;;3.70;99.90;;;;;;5016609;28;20425;-66
2021/12/01 03:45:00;;;;;;;0.40;0.40;;;3.80;99.90;;;;;;5016930;28;20426;-67
2021/12/01 03:47:47;;;;;;;0.40;0.40;;;3.90;99.90;;;;;;5014928;28;20414;-66
2021/12/01 03:50:35;;;;;;;0.40;0.40;;;3.90;99.90;;;;;;5015058;28;20422;-66
2021/12/01 03:53:23;;;;;;;0.40;0.40;;;3.90;99.90;;;;;;5016095;28;20438;-67
2021/12/01 03:56:10;;;;;;;0.40;0.40;;;4.00;99.90;;;;;;5016330;28;20446;-66
2021/12/01 03:58:58;;;;;;;0.40;0.40;;;4.00;99.90;;;;;;5015949;28;20418;-66
2021/12/01 04:01:46;;;;;;;0.40;0.40;;;4.00;99.90;;;;;;5014019;28;20449;-66
2021/12/01 04:04:33;;;;;;;0.40;0.40;;;4.00;99.90;;;;;;5015305;28;20428;-66
2021/12/01 04:07:20;;;;;;;0.40;0.40;;;4.10;99.90;;;;;;5015849;28;20555;-66
2021/12/01 04:10:10;;;;;;;0.40;0.40;;;4.10;99.90;;;;;;5014743;28;20949;-67
2021/12/01 04:12:57;;;;;;;0.40;0.40;;;4.10;99.90;;;;;;5014320;28;20438;-67
2021/12/01 04:15:44;;;;;;;0.40;0.40;;;4.10;99.90;;;;;;5015148;28;20484;-66
2021/12/01 04:18:32;;;;;;;0.40;0.40;;;4.20;99.90;;;;;;5014495;28;20429;-66
2021/12/01 04:21:20;;;;;;;0.40;0.40;;;4.10;99.90;;;;;;5015103;28;20429;-66
2021/12/01 04:24:08;;;;;;;0.40;0.40;;;4.10;99.90;;;;;;5014860;28;20841;-66
2021/12/01 04:26:54;;;;;;;0.40;0.40;;;4.20;99.90;;;;;;5014509;28;20548;-66
2021/12/01 04:29:41;;;;;;;0.40;0.40;;;4.10;99.90;;;;;;5014570;28;20482;-67
2021/12/01 04:32:29;;;;;;;0.40;0.40;;;4.20;99.90;;;;;;5015259;28;20441;-66
2021/12/01 04:35:19;;;;;;;0.40;0.40;;;4.20;99.90;;;;;;5015414;28;20421;-67
2021/12/01 04:38:06;;;;;;;0.40;0.40;;;4.20;99.90;;;;;;5016528;28;20798;-66
2021/12/01 04:40:53;;;;;;;0.40;0.40;;;4.10;99.90;;;;;;5011045;28;20435;-67
2021/12/01 04:43:41;;;;;;;0.40;0.40;;;4.30;99.90;;;;;;4994418;28;21049;-66
2021/12/01 04:46:28;;;;;;;0.40;0.40;;;4.20;99.90;;;;;;4995100;28;20536;-66
2021/12/01 04:49:18;;;;;;;0.40;0.40;;;4.30;99.90;;;;;;4994425;28;20510;-67
2021/12/01 04:52:08;;;;;;;0.40;0.40;;;4.20;99.90;;;;;;4976077;28;20443;-66
2021/12/01 04:54:55;;;;;;;0.40;0.40;;;4.30;99.90;;;;;;4977277;28;20523;-66
2021/12/01 04:57:43;;;;;;;0.40;0.40;;;4.30;99.90;;;;;;4977193;28;20471;-66
2021/12/01 05:00:34;;;;;;;0.40;0.40;;;4.30;99.90;;;;;;4977145;28;20471;-66
2021/12/01 05:03:20;;;;;;;0.40;0.40;;;4.30;99.90;;;;;;4977042;28;20471;-66
2021/12/01 05:06:07;;;;;;;0.40;0.40;;;4.30;99.90;;;;;;4977796;28;20463;-66
2021/12/01 05:08:56;;;;;;;0.40;0.40;;;4.30;99.90;;;;;;4976675;28;20536;-66
2021/12/01 05:11:43;;;;;;;0.40;0.40;;;4.20;99.90;;;;;;4977259;28;20442;-67
2021/12/01 05:14:30;;;;;;;0.40;0.40;;;4.20;99.90;;;;;;4974347;28;20822;-66
2021/12/01 05:17:19;;;;;;;0.40;0.40;;;4.30;99.90;;;;;;4977083;28;20432;-66
2021/12/01 05:20:07;;;;;;;0.40;0.40;;;4.30;99.90;;;;;;4976314;28;21132;-66
2021/12/01 05:22:54;;;;;;;0.40;0.40;;;4.30;99.90;;;;;;4975014;28;20459;-67
2021/12/01 05:25:43;;;;;;;0.40;0.40;;;4.30;99.90;;;;;;4976489;28;20475;-66
2021/12/01 05:28:30;;;;;;;0.40;0.40;;;4.20;99.90;;;;;;4976413;28;20905;-66
2021/12/01 05:31:17;;;;;;;0.40;0.40;;;4.30;99.90;;;;;;4976251;28;20423;-66
2021/12/01 05:34:04;;;;;;;0.40;0.40;;;4.30;99.90;;;;;;4976389;28;20472;-66
2021/12/01 05:36:51;;;;;;;0.40;0.40;;;4.30;99.90;;;;;;4976122;28;20810;-66
2021/12/01 05:39:41;;;;;;;0.40;0.40;;;4.30;99.90;;;;;;4975904;28;20839;-66
2021/12/01 05:42:30;;;;;;;0.40;0.40;;;4.60;99.90;;;;;;4979282;28;20459;-67
2021/12/01 05:45:17;;;;;;;0.40;0.40;;;4.30;99.90;;;;;;4995259;28;20811;-66
2021/12/01 05:48:05;;;;;;;0.40;0.40;;;4.30;99.90;;;;;;4995779;28;20458;-67
2021/12/01 05:50:52;;;;;;;0.40;0.40;;;4.30;99.90;;;;;;4995111;28;20435;-67
2021/12/01 05:53:39;;;;;;;0.40;0.40;;;4.40;99.90;;;;;;4994932;28;20483;-66
2021/12/01 05:56:26;;;;;;;0.40;0.40;;;4.40;99.90;;;;;;4994638;28;20446;-67
2021/12/01 05:59:14;;;;;;;0.40;0.40;;;4.40;99.90;;;;;;4994491;28;20434;-66
2021/12/01 06:02:01;;;;;;;0.40;0.40;;;4.50;99.90;;;;;;4994182;28;20490;-66
2021/12/01 06:04:48;;;;;;;0.40;0.40;;;4.60;99.90;;;;;;4994465;28;20423;-67
2021/12/01 06:07:35;;;;;;;0.40;0.40;;;4.50;99.90;;;;;;4994311;28;20472;-67
2021/12/01 06:10:23;;;;;;;0.40;0.40;;;4.50;99.90;;;;;;4994308;28;20427;-67
2021/12/01 06:13:10;;;;;;;0.40;0.40;;;4.60;99.90;;;;;;4993239;28;20447;-67
2021/12/01 06:15:58;;;;;;;0.40;0.40;;;4.60;99.90;;;;;;4994921;28;20799;-67
2021/12/01 06:18:45;;;;;;;0.40;0.40;;;4.60;99.90;;;;;;4994079;28;20955;-67
2021/12/01 06:21:32;;;;;;;0.40;0.40;;;4.60;99.90;;;;;;4994093;28;20431;-67
2021/12/01 06:24:19;;;;;;;0.40;0.40;;;4.60;99.90;;;;;;4994988;28;20521;-67
2021/12/01 06:27:07;;;;;;;0.40;0.40;;;4.60;99.90;;;;;;4997361;28;20573;-67
2021/12/01 06:29:54;;;;;;;0.40;0.40;;;4.70;99.90;;;;;;4997044;28;20485;-67
2021/12/01 06:32:42;;;;;;;0.40;0.40;;;4.70;99.90;;;;;;4997653;28;21024;-67
2021/12/01 06:35:30;;;;;;;0.40;0.40;;;4.80;99.90;;;;;;4998832;28;20431;-67
2021/12/01 06:38:18;;;;;;;0.40;0.40;;;4.80;99.90;;;;;;4997441;28;20574;-67
2021/12/01 06:41:05;;;;;;;0.40;0.40;;;4.80;99.90;;;;;;5010251;28;20427;-67
2021/12/01 06:43:52;;;;;;;0.40;0.40;;;4.90;99.90;;;;;;5009175;28;20608;-67
2021/12/01 06:46:38;;;;;;;0.40;0.40;;;4.90;99.90;;;;;;5005029;28;20463;-67
2021/12/01 06:49:27;;;;;;;0.40;0.40;;;5.00;99.90;;;;;;5008577;28;20458;-67
2021/12/01 06:52:14;;;;;;;0.40;0.40;;;5.00;99.90;;;;;;4998183;28;20462;-67
2021/12/01 06:55:02;;;;;;;0.40;0.40;;;5.00;99.90;;;;;;4999545;28;20434;-67
2021/12/01 06:57:50;;;;;;;0.40;0.40;;;5.20;99.90;;;;;;5009745;28;20447;-67
2021/12/01 07:00:37;;;;;;;0.40;0.40;;;5.10;99.90;;;;;;5015483;28;20866;-67
2021/12/01 07:03:24;;;;;;;0.40;0.40;;;5.20;99.90;;;;;;5014718;28;20483;-67
2021/12/01 07:06:12;;;;;;;0.73;0.73;;;5.20;99.90;;;;;;5015022;28;20427;-68
2021/12/01 07:09:00;;;;;;;0.40;0.40;;;5.30;99.90;;;;;;5010278;28;20596;-67
2021/12/01 07:11:47;;;;;;;0.40;0.40;;;5.30;99.90;;;;;;4997647;28;20810;-67
2021/12/01 07:14:34;;;;;;;0.40;0.40;;;5.30;99.90;;;;;;4998111;28;20430;-67
2021/12/01 07:17:22;;;;;;;0.40;0.40;;;5.30;99.90;;;;;;4997277;28;20478;-67
2021/12/01 07:20:10;;;;;;;0.40;0.40;;;5.40;99.90;;;;;;5001459;28;20431;-67
2021/12/01 07:22:59;;;;;;;0.40;0.40;;;5.40;99.90;;;;;;5001037;28;20458;-67
2021/12/01 07:25:45;;;;;;;0.40;0.40;;;5.50;99.90;;;;;;5000343;28;20423;-67
2021/12/01 07:28:33;;;;;;;0.40;0.40;;;5.60;99.90;;;;;;4999225;28;20900;-67
2021/12/01 07:31:19;;;;;;;0.60;0.60;;;5.70;99.90;;;;;;4996952;28;20423;-67
2021/12/01 07:34:06;;;;;;;0.40;0.40;;;5.70;99.90;;;;;;5005576;28;20457;-67
2021/12/01 07:36:53;;;;;;;0.40;0.40;;;5.70;99.90;;;;;;4992251;28;20506;-67
2021/12/01 07:39:43;;;;;;;0.43;0.43;;;5.90;99.90;;;;;;4999976;28;20798;-67
2021/12/01 07:42:30;;;;;;;0.53;0.53;;;6.00;99.90;;;;;;5013534;28;20446;-67
2021/12/01 07:45:17;;;;;;;0.40;0.40;;;6.10;99.90;;;;;;4997150;28;20442;-67
2021/12/01 07:48:05;;;;;;;0.40;0.40;;;6.20;99.90;;;;;;4996718;28;20494;-67
2021/12/01 07:50:52;;;;;;;0.40;0.40;;;6.20;99.90;;;;;;4996490;28;20435;-66
2021/12/01 07:53:39;;;;;;;0.40;0.40;;;6.30;99.90;;;;;;4997694;28;20454;-67
2021/12/01 07:56:27;;;;;;;0.40;0.40;;;6.30;99.90;;;;;;4996283;28;20514;-66
2021/12/01 07:59:15;;;;;;;0.40;0.40;;;6.40;99.90;;;;;;4995813;28;20913;-66
2021/12/01 08:02:03;;;;;;;0.40;0.40;;;6.50;99.90;;;;;;4995919;28;20431;-67
2021/12/01 08:04:50;;;;;;;0.40;0.40;;;6.50;99.90;;;;;;4997539;28;20427;-67
2021/12/01 08:07:38;;;;;;;0.40;0.40;;;6.50;99.90;;;;;;5015292;28;20518;-67
2021/12/01 08:10:25;;;;;;;0.40;0.40;;;6.60;99.90;;;;;;5015217;28;20431;-67
2021/12/01 08:13:14;;;;;;;0.40;0.40;;;6.60;99.90;;;;;;5014299;28;20462;-67
2021/12/01 08:16:01;;;;;;;0.40;0.40;;;6.60;99.90;;;;;;5013460;28;20466;-67
2021/12/01 08:18:51;;;;;;;0.40;0.40;;;6.60;99.90;;;;;;5009769;28;20430;-68
2021/12/01 08:21:38;;;;;;;0.40;0.40;;;6.70;99.90;;;;;;5011442;28;20454;-67
2021/12/01 08:24:25;;;;;;;0.40;0.40;;;6.70;99.90;;;;;;4999509;28;20569;-67
2021/12/01 08:27:13;;;;;;;0.40;0.40;;;6.80;99.90;;;;;;4996315;28;21001;-67
2021/12/01 08:30:02;;;;;;;0.40;0.40;;;6.80;99.90;;;;;;4995905;28;20521;-67
2021/12/01 08:32:49;;;;;;;0.70;0.70;;;6.80;99.90;;;;;;4995145;28;20875;-66
2021/12/01 08:35:36;;;;;;;0.40;0.40;;;6.80;99.90;;;;;;4995852;28;20509;-68
2021/12/01 08:38:23;;;;;;;0.40;0.40;;;6.80;99.90;;;;;;4995644;28;20470;-67
2021/12/01 08:41:11;;;;;;;0.40;0.40;;;6.80;99.90;;;;;;4995767;28;20418;-67
2021/12/01 08:43:58;;;;;;;0.40;0.40;;;6.80;99.90;;;;;;4994475;28;20478;-66
2021/12/01 08:46:46;;;;;;;0.40;0.40;;;6.90;99.90;;;;;;4996621;28;20482;-67
2021/12/01 08:49:33;;;;;;;0.40;0.40;;;6.90;99.90;;;;;;4993795;28;20462;-67
2021/12/01 08:52:20;;;;;;;0.40;0.40;;;6.90;99.90;;;;;;4995819;28;21042;-67
2021/12/01 08:55:08;;;;;;;0.40;0.40;;;7.00;99.90;;;;;;4995032;28;20450;-67
2021/12/01 08:57:56;;;;;;;0.40;0.40;;;6.90;99.90;;;;;;4995616;28;20423;-67
2021/12/01 09:00:45;;;;;;;0.40;0.40;;;6.90;99.90;;;;;;4995912;28;20490;-66
2021/12/01 09:03:34;;;;;;;0.40;0.40;;;6.90;99.90;;;;;;4994203;28;20470;-66
2021/12/01 09:06:20;;;;;;;0.40;0.40;;;6.90;99.90;;;;;;4994271;28;20431;-67
2021/12/01 09:09:08;;;;;;;0.40;0.40;;;6.90;99.90;;;;;;4993863;28;20500;-66
2021/12/01 09:11:55;;;;;;;0.40;0.40;;;6.90;99.90;;;;;;4994733;28;20848;-66
2021/12/01 09:14:43;;;;;;;0.40;0.40;;;7.00;99.90;;;;;;4994399;28;20515;-67
2021/12/01 09:17:30;;;;;;;0.40;0.40;;;7.00;99.90;;;;;;4994752;28;20423;-66
2021/12/01 09:20:19;;;;;;;0.70;0.70;;;7.00;99.90;;;;;;4994793;28;20514;-67
2021/12/01 09:23:06;;;;;;;0.40;0.40;;;7.00;99.90;;;;;;5031094;23;20500;-71
2021/12/01 09:25:53;;;;;;;0.43;0.43;;;7.00;99.90;;;;;;5032813;28;20425;-70
2021/12/01 09:28:40;;;;;;;0.60;0.60;;;7.00;99.90;;;;;;5031255;28;20469;-70
2021/12/01 09:31:27;;;;;;;0.40;0.40;;;7.10;99.90;;;;;;5031883;28;20433;-70
2021/12/01 09:34:14;;;;;;;0.40;0.40;;;7.10;99.90;;;;;;5032006;28;20480;-69
2021/12/01 09:37:02;;;;;;;0.40;0.40;;;7.10;99.90;;;;;;5032196;28;20850;-68
2021/12/01 09:39:49;;;;;;;0.40;0.40;;;7.10;99.90;;;;;;5031483;28;20429;-70
2021/12/01 09:42:37;;;;;;;0.40;0.40;;;7.10;99.90;;;;;;5031860;28;20972;-71
2021/12/01 09:45:25;;;;;;;0.50;0.50;;;7.10;99.90;;;;;;5032738;28;20487;-71
2021/12/01 09:48:12;;;;;;;0.40;0.40;;;7.10;99.90;;;;;;5031763;28;20476;-71
2021/12/01 09:51:00;;;;;;;0.40;0.40;;;7.10;99.90;;;;;;5032594;28;20429;-70
2021/12/01 09:53:48;;;;;;;0.40;0.40;;;7.10;99.90;;;;;;5032353;28;20527;-70
2021/12/01 09:56:35;;;;;;;0.40;0.40;;;7.20;99.90;;;;;;5032638;28;20433;-70
2021/12/01 09:59:22;;;;;;;0.40;0.40;;;7.30;99.90;;;;;;5033101;28;20464;-69
2021/12/01 10:02:11;;;;;;;0.40;0.40;;;7.20;99.90;;;;;;5036521;28;20437;-70
2021/12/01 10:04:57;;;;;;;0.40;0.40;;;7.20;99.90;;;;;;5036551;28;20436;-69
2021/12/01 10:07:44;;;;;;;0.40;0.40;;;7.20;99.90;;;;;;5035574;28;20963;-70
2021/12/01 10:10:38;;;;;;;0.40;0.40;;;7.20;99.90;;;;;;5037800;28;20433;-70
2021/12/01 10:13:28;;;;;;;0.40;0.40;;;7.30;99.90;;;;;;5040800;28;20448;-70
2021/12/01 10:16:18;;;;;;;0.40;0.40;;;7.30;99.90;;;;;;5036342;28;20606;-70
2021/12/01 10:19:08;;;;;;;0.40;0.40;;;7.30;99.90;;;;;;5036440;28;20937;-70
2021/12/01 10:21:55;;;;;;;0.40;0.40;;;7.30;99.90;;;;;;5039844;28;20472;-70
2021/12/01 10:24:45;;;;;;;0.40;0.40;;;7.40;99.90;;;;;;5036186;28;20821;-71
2021/12/01 10:27:38;;;;;;;0.40;0.40;;;7.50;99.90;;;;;;5035585;28;20472;-70
2021/12/01 10:30:41;;;;;;;0.40;0.40;;;7.60;99.90;;;;;;5035452;28;20433;-71
2021/12/01 10:33:30;;;;;;;0.40;0.40;;;7.50;99.90;;;;;;5034632;28;20863;-70
2021/12/01 10:36:16;;;;;;;0.40;0.40;;;7.50;99.90;;;;;;5035162;28;20421;-70
2021/12/01 10:39:05;;;;;;;0.40;0.40;;;7.50;99.90;;;;;;5035010;28;20503;-71
2021/12/01 10:41:52;;;;;;;0.50;0.50;;;7.50;99.90;;;;;;5036470;28;20736;-70
2021/12/01 10:44:55;;;;;;;0.47;0.47;;;7.60;99.90;;;;;;5015364;28;20425;-70
2021/12/01 10:47:44;;;;;;;0.50;0.50;;;7.50;99.90;;;;;;5015219;28;20504;-70
2021/12/01 10:50:33;;;;;;;0.50;0.50;;;7.50;99.90;;;;;;5014087;28;21009;-71
2021/12/01 10:53:23;;;;;;;0.40;0.40;;;7.60;99.90;;;;;;5014929;28;20495;-72
2021/12/01 10:56:11;;;;;;;0.40;0.40;;;7.50;99.90;;;;;;5014913;28;20484;-70
2021/12/01 10:59:10;;;;;;;0.50;0.50;;;7.60;99.90;;;;;;5015489;28;20847;-71
2021/12/01 11:02:10;;;;;;;0.40;0.40;;;7.60;99.90;;;;;;5015374;28;20715;-71
2021/12/01 11:04:56;;;;;;;0.40;0.40;;;7.60;99.90;;;;;;5014805;28;20901;-71
2021/12/01 11:07:43;;;;;;;0.40;0.40;;;7.10;99.90;;;;;;5015104;28;20502;-69
2021/12/01 11:10:30;;;;;;;0.40;0.40;;;7.50;99.90;;;;;;5014250;28;20457;-70
2021/12/01 11:13:18;;;;;;;0.90;0.90;;;7.50;99.90;;;;;;5015117;28;20457;-70
2021/12/01 11:16:07;;;;;;;0.40;0.40;;;7.50;99.90;;;;;;5015368;28;20951;-70
2021/12/01 11:18:59;;;;;;;0.40;0.40;;;7.50;99.90;;;;;;5014931;28;20512;-70
2021/12/01 11:21:46;;;;;;;0.40;0.40;;;7.50;99.90;;;;;;5014433;28;20430;-71
2021/12/01 11:24:33;;;;;;;1.00;1.00;;;7.60;99.90;;;;;;5014193;28;20468;-71
2021/12/01 11:27:20;;;;;;;0.40;0.40;;;7.50;99.90;;;;;;5014926;28;20583;-71
2021/12/01 11:30:07;;;;;;;0.40;0.40;;;7.50;99.90;;;;;;5014206;28;20422;-70
2021/12/01 11:32:54;;;;;;;1.43;0.93;;;7.60;99.90;;;;;;5015376;28;20985;-70
2021/12/01 11:35:43;;;;;;;0.40;0.40;;;7.60;99.90;;;;;;5014928;28;20440;-71
2021/12/01 11:38:30;;;;;;;0.40;0.40;;;7.60;99.90;;;;;;5014203;28;20446;-69
2021/12/01 11:41:17;;;;;;;0.60;0.60;;;7.70;99.90;;;;;;5014384;28;20959;-70
2021/12/01 11:44:05;;;;;;;0.40;0.40;;;7.70;99.90;;;;;;5029831;28;20472;-71
2021/12/01 11:46:52;;;;;;;0.50;0.50;;;7.80;99.90;;;;;;5034551;28;20941;-72
2021/12/01 11:49:42;;;;;;;0.40;0.40;;;7.80;99.90;;;;;;5033595;28;20981;-71
2021/12/01 11:52:42;;;;;;;1.43;0.70;;;7.80;99.90;;;;;;5033961;28;20843;-71
2021/12/01 11:55:50;;;;;;;0.40;0.40;;;7.90;99.90;;;;;;5034584;28;20851;-69
2021/12/01 11:58:58;;;;;;;0.97;0.97;;;7.80;99.90;;;;;;5034050;28;20427;-70
2021/12/01 12:01:50;;;;;;;0.40;0.40;;;7.80;99.90;;;;;;5033215;28;21051;-71
2021/12/01 12:04:43;;;;;;;0.40;0.40;;;7.80;99.90;;;;;;5033497;28;20693;-70
2021/12/01 12:07:36;;;;;;;0.40;0.40;;;7.80;99.90;;;;;;5034794;28;20912;-71
2021/12/01 12:10:24;;;;;;;0.40;0.40;;;7.80;99.90;;;;;;5033797;28;20605;-72
2021/12/01 12:13:11;;;;;;;0.40;0.40;;;7.90;99.90;;;;;;5036625;28;20452;-71
2021/12/01 12:16:02;;;;;;;0.40;0.40;;;7.90;99.90;;;;;;5039835;28;20457;-71
2021/12/01 12:18:52;;;;;;;0.50;0.50;;;8.00;99.90;;;;;;5034795;28;20421;-70
2021/12/01 12:21:42;;;;;;;0.40;0.40;;;8.00;99.90;;;;;;5033768;28;20425;-72
2021/12/01 12:24:43;;;;;;;1.13;1.13;;;8.10;99.90;;;;;;5033854;28;20583;-72
2021/12/01 12:27:36;;;;;;;0.40;0.40;;;7.90;99.90;;;;;;5032788;28;20941;-71
2021/12/01 12:30:41;;;;;;;0.40;0.40;;;8.00;99.90;;;;;;5032247;28;20433;-72
2021/12/01 12:33:31;;;;;;;0.40;0.40;;;8.10;99.90;;;;;;5034350;28;20529;-72
2021/12/01 12:36:37;;;;;;;0.50;0.50;;;8.10;99.90;;;;;;5033242;28;20422;-70
2021/12/01 12:39:28;;;;;;;0.40;0.40;;;8.20;99.90;;;;;;5032689;28;20439;-71
2021/12/01 12:42:17;;;;;;;0.40;0.40;;;8.20;99.90;;;;;;5032778;28;20424;-70
2021/12/01 12:45:05;;;;;;;0.40;0.40;;;8.20;99.90;;;;;;5014133;28;20810;-71
2021/12/01 12:47:52;;;;;;;0.40;0.40;;;8.20;99.90;;;;;;5013368;28;20430;-71
2021/12/01 12:50:39;;;;;;;1.07;0.50;;;8.20;99.90;;;;;;5018199;28;20433;-73
2021/12/01 12:53:27;;;;;;;0.40;0.40;;;8.20;99.90;;;;;;5013640;28;20477;-71
2021/12/01 12:56:32;;;;;;;0.40;0.40;;;8.10;99.90;;;;;;5013377;28;20430;-71
2021/12/01 12:59:33;;;;;;;0.50;0.50;;;8.10;99.90;;;;;;5012878;28;20417;-71
2021/12/01 13:02:33;;;;;;;0.40;0.40;;;8.20;99.90;;;;;;5013768;28;20433;-72
2021/12/01 13:05:32;;;;;;;0.40;0.40;;;8.20;99.90;;;;;;5014687;28;20434;-70
2021/12/01 13:08:30;;;;;;;0.40;0.40;;;8.20;99.90;;;;;;5013265;28;20473;-70
2021/12/01 13:11:20;;;;;;;0.40;0.40;;;8.20;99.90;;;;;;5013375;28;20429;-71
2021/12/01 13:14:07;;;;;;;0.40;0.40;;;8.30;99.90;;;;;;5013140;28;20481;-70
2021/12/01 13:17:01;;;;;;;0.50;0.50;;;8.20;99.90;;;;;;5013633;28;20512;-69
2021/12/01 13:19:48;;;;;;;0.40;0.40;;;8.30;99.90;;;;;;5013346;28;20422;-71
2021/12/01 13:22:35;;;;;;;0.40;0.40;;;8.30;99.90;;;;;;5014065;28;20481;-71
2021/12/01 13:25:22;;;;;;;0.50;0.50;;;8.30;99.90;;;;;;5012870;28;20429;-71
2021/12/01 13:28:11;;;;;;;0.50;0.50;;;8.30;99.90;;;;;;5013988;28;20868;-71
2021/12/01 13:30:59;;;;;;;0.40;0.40;;;8.30;99.90;;;;;;5013425;28;20422;-70
2021/12/01 13:34:09;;;;;;;0.40;0.40;;;8.30;99.90;;;;;;5012876;28;20450;-71
2021/12/01 13:37:01;;;;;;;0.40;0.40;;;8.30;99.90;;;;;;5016950;28;20515;-72
2021/12/01 13:39:48;;;;;;;0.50;0.50;;;8.30;99.90;;;;;;5016508;28;20426;-71
2021/12/01 13:42:35;;;;;;;0.40;0.40;;;8.30;99.90;;;;;;5020067;28;20456;-72
2021/12/01 13:45:24;;;;;;;0.40;0.40;;;8.30;99.90;;;;;;5036182;28;20456;-71
2021/12/01 13:48:11;;;;;;;0.40;0.40;;;8.30;99.90;;;;;;5029853;28;20796;-72
2021/12/01 13:51:12;;;;;;;0.40;0.40;;;8.30;99.90;;;;;;5016889;28;20468;-70
2021/12/01 13:53:59;;;;;;;0.40;0.40;;;8.30;99.90;;;;;;5016540;28;20798;-71
2021/12/01 13:56:59;;;;;;;0.40;0.40;;;8.30;99.90;;;;;;5036398;28;20475;-70
2021/12/01 13:59:48;;;;;;;0.40;0.40;;;8.40;99.90;;;;;;5035776;28;20425;-72
2021/12/01 14:02:35;;;;;;;0.40;0.40;;;8.40;99.90;;;;;;5036513;28;20448;-72
2021/12/01 14:05:24;;;;;;;0.40;0.40;;;8.50;99.90;;;;;;5035881;28;20424;-71
2021/12/01 14:08:30;;;;;;;0.40;0.40;;;8.50;99.90;;;;;;5036533;28;20417;-72
2021/12/01 14:11:42;;;;;;;0.50;0.50;;;8.50;99.90;;;;;;5036951;28;20432;-72
2021/12/01 14:14:29;;;;;;;0.40;0.40;;;8.50;99.90;;;;;;5033937;28;20471;-71
2021/12/01 14:17:18;;;;;;;0.40;0.40;;;8.50;99.90;;;;;;5043690;28;20417;-70
2021/12/01 14:20:06;;;;;;;0.50;0.50;;;8.50;99.90;;;;;;5037502;28;20449;-70
2021/12/01 14:22:54;;;;;;;0.40;0.40;;;8.50;99.90;;;;;;5035923;28;20519;-72
2021/12/01 14:25:50;;;;;;;0.57;0.40;;;8.50;99.90;;;;;;5036663;28;20471;-72
2021/12/01 14:28:38;;;;;;;0.47;0.47;;;8.50;99.90;;;;;;5037229;28;20425;-71
2021/12/01 14:31:25;;;;;;;0.43;0.43;;;8.50;99.90;;;;;;5036423;28;20804;-71
2021/12/01 14:34:14;;;;;;;0.40;0.40;;;8.60;99.90;;;;;;5035961;28;20567;-70
2021/12/01 14:37:02;;;;;;;0.40;0.40;;;8.60;99.90;;;;;;5036723;28;20425;-70
2021/12/01 14:39:49;;;;;;;0.40;0.40;;;8.60;99.90;;;;;;5036115;28;20449;-71
2021/12/01 14:42:43;;;;;;;0.40;0.40;;;8.60;99.90;;;;;;5034317;28;21044;-71
2021/12/01 14:45:30;;;;;;;0.40;0.40;;;8.70;99.90;;;;;;5016659;28;20919;-70
2021/12/01 14:48:16;;;;;;;0.40;0.40;;;8.60;99.90;;;;;;5016999;28;20500;-70
2021/12/01 14:51:05;;;;;;;0.50;0.50;;;8.60;99.90;;;;;;5016327;28;20421;-71
2021/12/01 14:53:52;;;;;;;0.40;0.40;;;8.50;99.90;;;;;;5017033;28;20541;-71
2021/12/01 14:56:42;;;;;;;0.40;0.40;;;8.50;99.90;;;;;;5017386;28;20433;-72